Boston Harbor, Washington
Current Conditions -  °F | °C
As of 3:54 PM on Saturday 22 Nov 2014 (Local Time) from KOLM Reporting Station
Broken Clouds Broken Clouds  
Wind Chill: 50°   Ceiling: 4200
Heat Index: 50°   Visibility: 10mi
Dew Point: 42°   Wind: 14mph
Humidity: 74%   Direction: 240°WSW
Pressure: 29.98"   Gusts: NA
Location:  46.9755°N, 122.872°W
Report Text: KOLM 222354Z 24012KT 10SM SCT035 BKN042 10/06 A2998 RMK AO2 SLP151 60001 T01000056 10111 20067 53029 $
Loading
Personal Weather Stations






























Interactive Weather Map New forecast layout! Learn more

10-Day Weather Forecast

Advertisements
Track Severe Weather on mobile